sensor_id;sensor_type;location;lat;lon;timestamp;P1;durP1;ratioP1;P2;durP2;ratioP2
9880;SDS011;4979;51.014;6.678;2024-02-28T00:02:05;52.13;;;23.98;;
9880;SDS011;4979;51.014;6.678;2024-02-28T00:04:30;64.45;;;24.90;;
9880;SDS011;4979;51.014;6.678;2024-02-28T00:06:56;52.20;;;24.70;;
9880;SDS011;4979;51.014;6.678;2024-02-28T00:09:21;53.67;;;23.60;;
9880;SDS011;4979;51.014;6.678;2024-02-28T00:11:47;54.17;;;25.85;;
9880;SDS011;4979;51.014;6.678;2024-02-28T00:14:13;53.13;;;26.13;;
9880;SDS011;4979;51.014;6.678;2024-02-28T00:16:42;61.42;;;26.52;;
9880;SDS011;4979;51.014;6.678;2024-02-28T00:19:08;64.00;;;26.27;;
9880;SDS011;4979;51.014;6.678;2024-02-28T00:21:36;50.15;;;25.30;;
9880;SDS011;4979;51.014;6.678;2024-02-28T00:24:01;53.70;;;26.52;;
9880;SDS011;4979;51.014;6.678;2024-02-28T00:26:27;58.88;;;27.25;;
9880;SDS011;4979;51.014;6.678;2024-02-28T00:28:53;61.95;;;26.52;;
9880;SDS011;4979;51.014;6.678;2024-02-28T00:31:18;55.80;;;25.17;;
9880;SDS011;4979;51.014;6.678;2024-02-28T00:33:44;69.43;;;32.58;;
9880;SDS011;4979;51.014;6.678;2024-02-28T00:36:09;67.55;;;27.10;;
9880;SDS011;4979;51.014;6.678;2024-02-28T00:38:35;59.65;;;26.70;;
9880;SDS011;4979;51.014;6.678;2024-02-28T00:41:00;54.75;;;27.40;;
9880;SDS011;4979;51.014;6.678;2024-02-28T00:43:26;67.55;;;29.60;;
9880;SDS011;4979;51.014;6.678;2024-02-28T00:45:52;71.68;;;30.05;;
9880;SDS011;4979;51.014;6.678;2024-02-28T00:48:17;74.70;;;34.92;;
9880;SDS011;4979;51.014;6.678;2024-02-28T00:50:43;78.35;;;34.60;;
9880;SDS011;4979;51.014;6.678;2024-02-28T00:53:08;66.70;;;32.10;;
9880;SDS011;4979;51.014;6.678;2024-02-28T00:55:34;72.93;;;31.60;;
9880;SDS011;4979;51.014;6.678;2024-02-28T00:57:59;63.13;;;29.27;;
9880;SDS011;4979;51.014;6.678;2024-02-28T01:00:25;73.97;;;30.90;;
9880;SDS011;4979;51.014;6.678;2024-02-28T01:02:50;71.82;;;31.77;;
9880;SDS011;4979;51.014;6.678;2024-02-28T01:05:16;68.32;;;33.58;;
9880;SDS011;4979;51.014;6.678;2024-02-28T01:07:41;68.47;;;32.25;;
9880;SDS011;4979;51.014;6.678;2024-02-28T01:10:07;74.32;;;34.00;;
9880;SDS011;4979;51.014;6.678;2024-02-28T01:12:32;85.35;;;36.90;;
9880;SDS011;4979;51.014;6.678;2024-02-28T01:14:58;99.10;;;41.22;;
9880;SDS011;4979;51.014;6.678;2024-02-28T01:17:24;82.35;;;38.28;;
9880;SDS011;4979;51.014;6.678;2024-02-28T01:19:49;98.00;;;41.50;;
9880;SDS011;4979;51.014;6.678;2024-02-28T01:22:15;97.25;;;41.25;;
9880;SDS011;4979;51.014;6.678;2024-02-28T01:24:40;90.63;;;39.63;;
9880;SDS011;4979;51.014;6.678;2024-02-28T01:27:06;96.50;;;41.05;;
9880;SDS011;4979;51.014;6.678;2024-02-28T01:29:31;84.82;;;40.38;;
9880;SDS011;4979;51.014;6.678;2024-02-28T01:31:57;88.07;;;37.05;;
9880;SDS011;4979;51.014;6.678;2024-02-28T01:34:23;93.85;;;39.70;;
9880;SDS011;4979;51.014;6.678;2024-02-28T01:36:48;87.38;;;39.63;;
9880;SDS011;4979;51.014;6.678;2024-02-28T01:39:14;89.85;;;39.22;;
9880;SDS011;4979;51.014;6.678;2024-02-28T01:41:39;90.95;;;38.05;;
9880;SDS011;4979;51.014;6.678;2024-02-28T01:44:05;88.57;;;40.25;;
9880;SDS011;4979;51.014;6.678;2024-02-28T01:46:31;97.50;;;40.35;;
9880;SDS011;4979;51.014;6.678;2024-02-28T01:48:57;91.65;;;39.88;;
9880;SDS011;4979;51.014;6.678;2024-02-28T01:51:24;81.70;;;39.38;;
9880;SDS011;4979;51.014;6.678;2024-02-28T01:53:52;85.43;;;38.53;;
9880;SDS011;4979;51.014;6.678;2024-02-28T01:56:18;95.40;;;41.13;;
9880;SDS011;4979;51.014;6.678;2024-02-28T01:58:46;82.40;;;38.33;;
9880;SDS011;4979;51.014;6.678;2024-02-28T02:01:15;84.65;;;39.53;;
9880;SDS011;4979;51.014;6.678;2024-02-28T02:03:45;90.22;;;37.50;;
9880;SDS011;4979;51.014;6.678;2024-02-28T02:06:10;88.70;;;39.10;;
9880;SDS011;4979;51.014;6.678;2024-02-28T02:08:36;97.10;;;39.03;;
9880;SDS011;4979;51.014;6.678;2024-02-28T02:11:03;86.03;;;39.17;;
9880;SDS011;4979;51.014;6.678;2024-02-28T02:13:29;80.10;;;36.95;;
9880;SDS011;4979;51.014;6.678;2024-02-28T02:15:54;80.72;;;35.63;;
9880;SDS011;4979;51.014;6.678;2024-02-28T02:18:20;79.00;;;38.15;;
9880;SDS011;4979;51.014;6.678;2024-02-28T02:20:46;78.00;;;36.25;;
9880;SDS011;4979;51.014;6.678;2024-02-28T02:23:19;81.70;;;37.17;;
9880;SDS011;4979;51.014;6.678;2024-02-28T02:25:45;76.53;;;37.53;;
9880;SDS011;4979;51.014;6.678;2024-02-28T02:28:11;78.55;;;38.72;;
9880;SDS011;4979;51.014;6.678;2024-02-28T02:30:37;81.97;;;37.35;;
9880;SDS011;4979;51.014;6.678;2024-02-28T02:33:03;75.15;;;37.85;;
9880;SDS011;4979;51.014;6.678;2024-02-28T02:35:29;85.85;;;40.15;;
9880;SDS011;4979;51.014;6.678;2024-02-28T02:37:55;86.60;;;39.10;;
9880;SDS011;4979;51.014;6.678;2024-02-28T02:40:20;81.35;;;39.72;;
9880;SDS011;4979;51.014;6.678;2024-02-28T02:42:46;80.20;;;38.70;;
9880;SDS011;4979;51.014;6.678;2024-02-28T02:45:11;84.85;;;40.22;;
9880;SDS011;4979;51.014;6.678;2024-02-28T02:47:37;82.13;;;37.25;;
9880;SDS011;4979;51.014;6.678;2024-02-28T02:50:02;76.72;;;37.38;;
9880;SDS011;4979;51.014;6.678;2024-02-28T02:52:28;151.10;;;100.78;;
9880;SDS011;4979;51.014;6.678;2024-02-28T02:54:54;79.95;;;38.38;;
9880;SDS011;4979;51.014;6.678;2024-02-28T02:57:19;82.55;;;38.10;;
9880;SDS011;4979;51.014;6.678;2024-02-28T02:59:45;73.78;;;35.97;;
9880;SDS011;4979;51.014;6.678;2024-02-28T03:02:11;85.35;;;38.50;;
9880;SDS011;4979;51.014;6.678;2024-02-28T03:04:36;80.13;;;35.92;;
9880;SDS011;4979;51.014;6.678;2024-02-28T03:07:02;84.47;;;37.42;;
9880;SDS011;4979;51.014;6.678;2024-02-28T03:09:27;81.45;;;37.50;;
9880;SDS011;4979;51.014;6.678;2024-02-28T03:11:53;78.95;;;38.42;;
9880;SDS011;4979;51.014;6.678;2024-02-28T03:14:18;83.15;;;38.30;;
9880;SDS011;4979;51.014;6.678;2024-02-28T03:16:47;74.75;;;35.70;;
9880;SDS011;4979;51.014;6.678;2024-02-28T03:19:13;89.57;;;39.55;;
9880;SDS011;4979;51.014;6.678;2024-02-28T03:21:39;77.10;;;36.67;;
9880;SDS011;4979;51.014;6.678;2024-02-28T03:24:06;81.95;;;37.60;;
9880;SDS011;4979;51.014;6.678;2024-02-28T03:26:31;84.63;;;38.42;;
9880;SDS011;4979;51.014;6.678;2024-02-28T03:28:57;76.50;;;36.42;;
9880;SDS011;4979;51.014;6.678;2024-02-28T03:31:23;84.38;;;36.78;;
9880;SDS011;4979;51.014;6.678;2024-02-28T03:33:49;80.38;;;35.65;;
9880;SDS011;4979;51.014;6.678;2024-02-28T03:36:15;79.82;;;37.08;;
9880;SDS011;4979;51.014;6.678;2024-02-28T03:38:41;73.47;;;36.63;;
9880;SDS011;4979;51.014;6.678;2024-02-28T03:41:07;79.72;;;36.40;;
9880;SDS011;4979;51.014;6.678;2024-02-28T03:43:32;71.85;;;34.80;;
9880;SDS011;4979;51.014;6.678;2024-02-28T03:45:58;77.40;;;35.78;;
9880;SDS011;4979;51.014;6.678;2024-02-28T03:48:23;72.68;;;34.80;;
9880;SDS011;4979;51.014;6.678;2024-02-28T03:50:49;74.70;;;35.10;;
9880;SDS011;4979;51.014;6.678;2024-02-28T03:53:15;78.68;;;36.33;;
9880;SDS011;4979;51.014;6.678;2024-02-28T03:55:41;75.63;;;36.10;;
9880;SDS011;4979;51.014;6.678;2024-02-28T03:58:08;78.45;;;37.28;;
9880;SDS011;4979;51.014;6.678;2024-02-28T04:00:34;73.65;;;36.15;;
9880;SDS011;4979;51.014;6.678;2024-02-28T04:03:01;76.40;;;36.03;;
9880;SDS011;4979;51.014;6.678;2024-02-28T04:05:27;80.88;;;35.97;;
9880;SDS011;4979;51.014;6.678;2024-02-28T04:07:53;81.53;;;36.22;;
9880;SDS011;4979;51.014;6.678;2024-02-28T04:10:19;79.25;;;33.78;;
9880;SDS011;4979;51.014;6.678;2024-02-28T04:12:44;67.60;;;31.02;;
9880;SDS011;4979;51.014;6.678;2024-02-28T04:15:10;68.32;;;29.92;;
9880;SDS011;4979;51.014;6.678;2024-02-28T04:17:37;59.97;;;27.65;;
9880;SDS011;4979;51.014;6.678;2024-02-28T04:20:03;64.40;;;25.77;;
9880;SDS011;4979;51.014;6.678;2024-02-28T04:22:38;59.45;;;27.20;;
9880;SDS011;4979;51.014;6.678;2024-02-28T04:25:05;61.70;;;27.38;;
9880;SDS011;4979;51.014;6.678;2024-02-28T04:27:31;57.47;;;26.65;;
9880;SDS011;4979;51.014;6.678;2024-02-28T04:29:57;55.25;;;26.60;;
9880;SDS011;4979;51.014;6.678;2024-02-28T04:32:22;56.17;;;25.90;;
9880;SDS011;4979;51.014;6.678;2024-02-28T04:34:49;54.88;;;26.58;;
9880;SDS011;4979;51.014;6.678;2024-02-28T04:37:14;58.35;;;26.73;;
9880;SDS011;4979;51.014;6.678;2024-02-28T04:39:40;56.80;;;27.90;;
9880;SDS011;4979;51.014;6.678;2024-02-28T04:42:05;54.30;;;25.33;;
9880;SDS011;4979;51.014;6.678;2024-02-28T04:44:31;52.45;;;25.33;;
9880;SDS011;4979;51.014;6.678;2024-02-28T04:46:57;73.32;;;25.75;;
9880;SDS011;4979;51.014;6.678;2024-02-28T04:49:22;77.97;;;26.60;;
9880;SDS011;4979;51.014;6.678;2024-02-28T04:51:48;63.75;;;22.65;;
9880;SDS011;4979;51.014;6.678;2024-02-28T04:54:13;91.63;;;24.98;;
9880;SDS011;4979;51.014;6.678;2024-02-28T04:56:40;63.55;;;21.85;;
9880;SDS011;4979;51.014;6.678;2024-02-28T04:59:06;71.55;;;22.38;;
9880;SDS011;4979;51.014;6.678;2024-02-28T05:01:32;51.83;;;20.92;;
9880;SDS011;4979;51.014;6.678;2024-02-28T05:04:00;69.43;;;23.00;;
9880;SDS011;4979;51.014;6.678;2024-02-28T05:06:25;50.30;;;20.70;;
9880;SDS011;4979;51.014;6.678;2024-02-28T05:08:51;49.22;;;21.05;;
9880;SDS011;4979;51.014;6.678;2024-02-28T05:11:16;48.75;;;22.13;;
9880;SDS011;4979;51.014;6.678;2024-02-28T05:13:42;59.65;;;24.83;;
9880;SDS011;4979;51.014;6.678;2024-02-28T05:16:14;57.03;;;23.60;;
9880;SDS011;4979;51.014;6.678;2024-02-28T05:18:40;52.97;;;24.10;;
9880;SDS011;4979;51.014;6.678;2024-02-28T05:21:06;50.45;;;23.35;;
9880;SDS011;4979;51.014;6.678;2024-02-28T05:23:31;62.20;;;26.60;;
9880;SDS011;4979;51.014;6.678;2024-02-28T05:25:57;78.35;;;27.15;;
9880;SDS011;4979;51.014;6.678;2024-02-28T05:28:23;72.78;;;26.38;;
9880;SDS011;4979;51.014;6.678;2024-02-28T05:30:49;60.78;;;25.58;;
9880;SDS011;4979;51.014;6.678;2024-02-28T05:33:14;58.03;;;25.65;;
9880;SDS011;4979;51.014;6.678;2024-02-28T05:35:42;66.32;;;27.52;;
9880;SDS011;4979;51.014;6.678;2024-02-28T05:38:08;66.20;;;27.40;;
9880;SDS011;4979;51.014;6.678;2024-02-28T05:40:34;72.20;;;28.83;;
9880;SDS011;4979;51.014;6.678;2024-02-28T05:42:59;66.50;;;27.83;;
9880;SDS011;4979;51.014;6.678;2024-02-28T05:45:27;68.35;;;27.20;;
9880;SDS011;4979;51.014;6.678;2024-02-28T05:47:52;71.18;;;29.00;;
9880;SDS011;4979;51.014;6.678;2024-02-28T05:50:18;71.95;;;29.58;;
9880;SDS011;4979;51.014;6.678;2024-02-28T05:52:43;70.05;;;29.83;;
9880;SDS011;4979;51.014;6.678;2024-02-28T05:55:09;69.03;;;29.20;;
9880;SDS011;4979;51.014;6.678;2024-02-28T05:57:34;72.40;;;28.42;;
9880;SDS011;4979;51.014;6.678;2024-02-28T06:00:00;71.30;;;28.98;;
9880;SDS011;4979;51.014;6.678;2024-02-28T06:02:25;79.85;;;31.10;;
9880;SDS011;4979;51.014;6.678;2024-02-28T06:04:51;82.28;;;32.03;;
9880;SDS011;4979;51.014;6.678;2024-02-28T06:07:17;79.30;;;31.42;;
9880;SDS011;4979;51.014;6.678;2024-02-28T06:09:43;87.55;;;30.02;;
9880;SDS011;4979;51.014;6.678;2024-02-28T06:12:08;83.53;;;29.02;;
9880;SDS011;4979;51.014;6.678;2024-02-28T06:14:34;79.40;;;30.55;;
9880;SDS011;4979;51.014;6.678;2024-02-28T06:16:59;91.38;;;31.73;;
9880;SDS011;4979;51.014;6.678;2024-02-28T06:19:25;90.97;;;32.08;;
9880;SDS011;4979;51.014;6.678;2024-02-28T06:21:51;79.85;;;31.13;;
9880;SDS011;4979;51.014;6.678;2024-02-28T06:24:16;78.90;;;31.75;;
9880;SDS011;4979;51.014;6.678;2024-02-28T06:26:42;82.65;;;30.98;;
9880;SDS011;4979;51.014;6.678;2024-02-28T06:29:08;80.45;;;32.08;;
9880;SDS011;4979;51.014;6.678;2024-02-28T06:31:33;79.55;;;31.27;;
9880;SDS011;4979;51.014;6.678;2024-02-28T06:33:59;83.07;;;33.15;;
9880;SDS011;4979;51.014;6.678;2024-02-28T06:36:25;101.40;;;34.08;;
9880;SDS011;4979;51.014;6.678;2024-02-28T06:38:50;95.50;;;35.20;;
9880;SDS011;4979;51.014;6.678;2024-02-28T06:41:16;91.30;;;32.20;;
9880;SDS011;4979;51.014;6.678;2024-02-28T06:43:41;95.07;;;32.97;;
9880;SDS011;4979;51.014;6.678;2024-02-28T06:46:07;104.50;;;34.65;;
9880;SDS011;4979;51.014;6.678;2024-02-28T06:48:34;99.30;;;32.50;;
9880;SDS011;4979;51.014;6.678;2024-02-28T06:51:00;94.07;;;34.50;;
9880;SDS011;4979;51.014;6.678;2024-02-28T06:53:25;98.50;;;32.70;;
9880;SDS011;4979;51.014;6.678;2024-02-28T06:55:51;95.82;;;33.60;;
9880;SDS011;4979;51.014;6.678;2024-02-28T06:58:17;84.55;;;31.75;;
9880;SDS011;4979;51.014;6.678;2024-02-28T07:00:42;77.45;;;30.98;;
9880;SDS011;4979;51.014;6.678;2024-02-28T07:03:08;92.93;;;33.95;;
9880;SDS011;4979;51.014;6.678;2024-02-28T07:05:33;86.70;;;34.28;;
9880;SDS011;4979;51.014;6.678;2024-02-28T07:07:59;85.10;;;30.13;;
9880;SDS011;4979;51.014;6.678;2024-02-28T07:10:25;83.03;;;32.03;;
9880;SDS011;4979;51.014;6.678;2024-02-28T07:12:51;85.38;;;31.98;;
9880;SDS011;4979;51.014;6.678;2024-02-28T07:15:16;92.45;;;33.90;;
9880;SDS011;4979;51.014;6.678;2024-02-28T07:17:45;84.85;;;32.80;;
9880;SDS011;4979;51.014;6.678;2024-02-28T07:20:11;83.97;;;32.38;;
9880;SDS011;4979;51.014;6.678;2024-02-28T07:22:37;80.90;;;31.98;;
9880;SDS011;4979;51.014;6.678;2024-02-28T07:25:03;78.82;;;31.20;;
9880;SDS011;4979;51.014;6.678;2024-02-28T07:27:29;79.40;;;32.28;;
9880;SDS011;4979;51.014;6.678;2024-02-28T07:29:55;86.72;;;30.90;;
9880;SDS011;4979;51.014;6.678;2024-02-28T07:32:21;87.00;;;33.47;;
9880;SDS011;4979;51.014;6.678;2024-02-28T07:34:46;97.15;;;35.63;;
9880;SDS011;4979;51.014;6.678;2024-02-28T07:37:12;81.22;;;30.88;;
9880;SDS011;4979;51.014;6.678;2024-02-28T07:39:37;65.13;;;28.55;;
9880;SDS011;4979;51.014;6.678;2024-02-28T07:42:03;70.60;;;29.02;;
9880;SDS011;4979;51.014;6.678;2024-02-28T07:44:29;74.68;;;30.70;;
9880;SDS011;4979;51.014;6.678;2024-02-28T07:46:58;63.90;;;26.63;;
9880;SDS011;4979;51.014;6.678;2024-02-28T07:49:23;75.03;;;29.02;;
9880;SDS011;4979;51.014;6.678;2024-02-28T07:51:50;71.30;;;28.58;;
9880;SDS011;4979;51.014;6.678;2024-02-28T07:54:15;71.38;;;28.85;;
9880;SDS011;4979;51.014;6.678;2024-02-28T07:56:41;72.85;;;29.50;;
9880;SDS011;4979;51.014;6.678;2024-02-28T07:59:06;62.17;;;26.45;;
9880;SDS011;4979;51.014;6.678;2024-02-28T08:01:32;69.78;;;29.20;;
9880;SDS011;4979;51.014;6.678;2024-02-28T08:03:58;71.22;;;29.92;;
9880;SDS011;4979;51.014;6.678;2024-02-28T08:06:24;65.03;;;29.95;;
9880;SDS011;4979;51.014;6.678;2024-02-28T08:08:50;75.18;;;33.45;;
9880;SDS011;4979;51.014;6.678;2024-02-28T08:11:16;71.32;;;29.20;;
9880;SDS011;4979;51.014;6.678;2024-02-28T08:13:42;63.30;;;28.98;;
9880;SDS011;4979;51.014;6.678;2024-02-28T08:16:09;66.90;;;30.92;;
9880;SDS011;4979;51.014;6.678;2024-02-28T08:18:34;72.90;;;31.23;;
9880;SDS011;4979;51.014;6.678;2024-02-28T08:21:00;79.97;;;33.30;;
9880;SDS011;4979;51.014;6.678;2024-02-28T08:23:27;78.00;;;32.35;;
9880;SDS011;4979;51.014;6.678;2024-02-28T08:25:54;77.35;;;33.15;;
9880;SDS011;4979;51.014;6.678;2024-02-28T08:28:20;77.57;;;32.60;;
9880;SDS011;4979;51.014;6.678;2024-02-28T08:30:45;66.80;;;30.20;;
9880;SDS011;4979;51.014;6.678;2024-02-28T08:33:11;76.85;;;31.30;;
9880;SDS011;4979;51.014;6.678;2024-02-28T08:35:37;78.90;;;33.58;;
9880;SDS011;4979;51.014;6.678;2024-02-28T08:38:02;70.38;;;31.48;;
9880;SDS011;4979;51.014;6.678;2024-02-28T08:40:28;75.32;;;32.53;;
9880;SDS011;4979;51.014;6.678;2024-02-28T08:42:55;79.93;;;33.53;;
9880;SDS011;4979;51.014;6.678;2024-02-28T08:45:22;78.32;;;33.05;;
9880;SDS011;4979;51.014;6.678;2024-02-28T08:47:51;82.35;;;35.38;;
9880;SDS011;4979;51.014;6.678;2024-02-28T08:50:18;66.78;;;30.10;;
9880;SDS011;4979;51.014;6.678;2024-02-28T08:52:43;73.32;;;32.08;;
9880;SDS011;4979;51.014;6.678;2024-02-28T08:55:09;69.25;;;31.20;;
9880;SDS011;4979;51.014;6.678;2024-02-28T08:57:34;70.70;;;30.45;;
9880;SDS011;4979;51.014;6.678;2024-02-28T09:00:00;68.88;;;30.55;;
9880;SDS011;4979;51.014;6.678;2024-02-28T09:02:26;72.43;;;33.58;;
9880;SDS011;4979;51.014;6.678;2024-02-28T09:04:51;82.07;;;36.03;;
9880;SDS011;4979;51.014;6.678;2024-02-28T09:07:21;75.20;;;32.17;;
9880;SDS011;4979;51.014;6.678;2024-02-28T09:09:47;78.35;;;35.00;;
9880;SDS011;4979;51.014;6.678;2024-02-28T09:12:13;70.82;;;31.70;;
9880;SDS011;4979;51.014;6.678;2024-02-28T09:14:41;71.45;;;34.58;;
9880;SDS011;4979;51.014;6.678;2024-02-28T09:17:09;82.80;;;35.22;;
9880;SDS011;4979;51.014;6.678;2024-02-28T09:19:34;72.13;;;32.00;;
9880;SDS011;4979;51.014;6.678;2024-02-28T09:22:00;69.95;;;32.75;;
9880;SDS011;4979;51.014;6.678;2024-02-28T09:24:26;69.90;;;31.85;;
9880;SDS011;4979;51.014;6.678;2024-02-28T09:26:51;62.08;;;30.55;;
9880;SDS011;4979;51.014;6.678;2024-02-28T09:29:17;61.38;;;30.33;;
9880;SDS011;4979;51.014;6.678;2024-02-28T09:31:43;70.88;;;33.72;;
9880;SDS011;4979;51.014;6.678;2024-02-28T09:34:08;64.93;;;31.85;;
9880;SDS011;4979;51.014;6.678;2024-02-28T09:36:42;63.22;;;30.67;;
9880;SDS011;4979;51.014;6.678;2024-02-28T09:39:10;68.65;;;31.33;;
9880;SDS011;4979;51.014;6.678;2024-02-28T09:41:40;56.53;;;29.48;;
9880;SDS011;4979;51.014;6.678;2024-02-28T09:44:06;54.10;;;30.25;;
9880;SDS011;4979;51.014;6.678;2024-02-28T09:46:33;53.92;;;29.05;;
9880;SDS011;4979;51.014;6.678;2024-02-28T09:49:00;55.50;;;29.33;;
9880;SDS011;4979;51.014;6.678;2024-02-28T09:51:33;61.00;;;28.17;;
9880;SDS011;4979;51.014;6.678;2024-02-28T09:54:00;64.10;;;29.55;;
9880;SDS011;4979;51.014;6.678;2024-02-28T09:56:29;56.83;;;28.23;;
9880;SDS011;4979;51.014;6.678;2024-02-28T09:58:59;43.60;;;26.38;;
9880;SDS011;4979;51.014;6.678;2024-02-28T10:01:28;48.38;;;27.45;;
9880;SDS011;4979;51.014;6.678;2024-02-28T10:03:54;49.33;;;28.05;;
9880;SDS011;4979;51.014;6.678;2024-02-28T10:06:21;46.58;;;25.70;;
9880;SDS011;4979;51.014;6.678;2024-02-28T10:08:47;48.47;;;28.05;;
9880;SDS011;4979;51.014;6.678;2024-02-28T10:11:19;47.65;;;27.60;;
9880;SDS011;4979;51.014;6.678;2024-02-28T10:13:49;46.40;;;26.58;;
9880;SDS011;4979;51.014;6.678;2024-02-28T10:16:15;52.22;;;27.88;;
9880;SDS011;4979;51.014;6.678;2024-02-28T10:18:44;45.88;;;26.90;;
9880;SDS011;4979;51.014;6.678;2024-02-28T10:21:11;49.60;;;26.92;;
9880;SDS011;4979;51.014;6.678;2024-02-28T10:23:43;46.08;;;26.67;;
9880;SDS011;4979;51.014;6.678;2024-02-28T10:26:10;46.65;;;24.65;;
9880;SDS011;4979;51.014;6.678;2024-02-28T10:28:37;42.90;;;26.35;;
9880;SDS011;4979;51.014;6.678;2024-02-28T10:31:09;45.08;;;25.92;;
9880;SDS011;4979;51.014;6.678;2024-02-28T10:33:35;44.53;;;26.88;;
9880;SDS011;4979;51.014;6.678;2024-02-28T10:36:04;43.50;;;25.40;;
9880;SDS011;4979;51.014;6.678;2024-02-28T10:38:30;50.20;;;26.13;;
9880;SDS011;4979;51.014;6.678;2024-02-28T10:41:01;41.88;;;24.70;;
9880;SDS011;4979;51.014;6.678;2024-02-28T10:43:30;43.42;;;25.90;;
9880;SDS011;4979;51.014;6.678;2024-02-28T10:45:56;43.50;;;25.90;;
9880;SDS011;4979;51.014;6.678;2024-02-28T10:48:24;44.60;;;25.52;;
9880;SDS011;4979;51.014;6.678;2024-02-28T10:50:50;44.65;;;25.73;;
9880;SDS011;4979;51.014;6.678;2024-02-28T10:53:18;40.78;;;24.27;;
9880;SDS011;4979;51.014;6.678;2024-02-28T10:55:47;42.00;;;25.10;;
9880;SDS011;4979;51.014;6.678;2024-02-28T10:58:14;43.72;;;25.10;;
9880;SDS011;4979;51.014;6.678;2024-02-28T11:00:41;45.40;;;25.10;;
9880;SDS011;4979;51.014;6.678;2024-02-28T11:03:09;42.63;;;25.52;;
9880;SDS011;4979;51.014;6.678;2024-02-28T11:05:36;41.28;;;23.60;;
9880;SDS011;4979;51.014;6.678;2024-02-28T11:08:27;40.53;;;24.48;;
9880;SDS011;4979;51.014;6.678;2024-02-28T11:13:22;45.30;;;25.73;;
9880;SDS011;4979;51.014;6.678;2024-02-28T11:15:52;39.45;;;23.08;;
9880;SDS011;4979;51.014;6.678;2024-02-28T11:18:18;43.25;;;23.48;;
9880;SDS011;4979;51.014;6.678;2024-02-28T11:20:44;44.88;;;24.70;;
9880;SDS011;4979;51.014;6.678;2024-02-28T11:23:13;40.10;;;24.42;;
9880;SDS011;4979;51.014;6.678;2024-02-28T11:25:40;44.95;;;26.58;;
9880;SDS011;4979;51.014;6.678;2024-02-28T11:28:06;42.22;;;25.00;;
9880;SDS011;4979;51.014;6.678;2024-02-28T11:30:32;42.17;;;24.23;;
9880;SDS011;4979;51.014;6.678;2024-02-28T11:32:58;42.55;;;23.42;;
9880;SDS011;4979;51.014;6.678;2024-02-28T11:35:24;35.97;;;21.35;;
9880;SDS011;4979;51.014;6.678;2024-02-28T11:37:50;43.22;;;23.88;;
9880;SDS011;4979;51.014;6.678;2024-02-28T11:40:18;40.97;;;23.52;;
9880;SDS011;4979;51.014;6.678;2024-02-28T11:42:44;39.60;;;23.20;;
9880;SDS011;4979;51.014;6.678;2024-02-28T11:45:10;39.90;;;22.10;;
9880;SDS011;4979;51.014;6.678;2024-02-28T11:47:36;37.72;;;22.92;;
9880;SDS011;4979;51.014;6.678;2024-02-28T11:50:02;36.70;;;21.65;;
9880;SDS011;4979;51.014;6.678;2024-02-28T11:52:31;39.65;;;22.48;;
9880;SDS011;4979;51.014;6.678;2024-02-28T11:54:57;35.05;;;20.77;;
9880;SDS011;4979;51.014;6.678;2024-02-28T11:57:22;36.80;;;20.67;;
9880;SDS011;4979;51.014;6.678;2024-02-28T11:59:48;37.58;;;19.17;;
9880;SDS011;4979;51.014;6.678;2024-02-28T12:02:14;33.97;;;19.08;;
9880;SDS011;4979;51.014;6.678;2024-02-28T12:04:44;34.80;;;19.35;;
9880;SDS011;4979;51.014;6.678;2024-02-28T12:07:10;32.15;;;20.92;;
9880;SDS011;4979;51.014;6.678;2024-02-28T12:09:38;35.85;;;19.83;;
9880;SDS011;4979;51.014;6.678;2024-02-28T12:12:06;32.60;;;19.40;;
9880;SDS011;4979;51.014;6.678;2024-02-28T12:14:32;36.15;;;20.75;;
9880;SDS011;4979;51.014;6.678;2024-02-28T12:17:01;34.42;;;18.58;;
9880;SDS011;4979;51.014;6.678;2024-02-28T12:19:27;31.50;;;16.30;;
9880;SDS011;4979;51.014;6.678;2024-02-28T12:21:54;29.45;;;17.30;;
9880;SDS011;4979;51.014;6.678;2024-02-28T12:24:20;31.73;;;18.10;;
9880;SDS011;4979;51.014;6.678;2024-02-28T12:26:46;29.63;;;16.55;;
9880;SDS011;4979;51.014;6.678;2024-02-28T12:29:11;28.65;;;17.15;;
9880;SDS011;4979;51.014;6.678;2024-02-28T12:31:37;32.28;;;17.45;;
9880;SDS011;4979;51.014;6.678;2024-02-28T12:34:03;26.10;;;16.13;;
9880;SDS011;4979;51.014;6.678;2024-02-28T12:36:29;29.02;;;15.93;;
9880;SDS011;4979;51.014;6.678;2024-02-28T12:38:56;26.40;;;15.88;;
9880;SDS011;4979;51.014;6.678;2024-02-28T12:41:22;28.92;;;15.88;;
9880;SDS011;4979;51.014;6.678;2024-02-28T12:43:48;26.40;;;14.85;;
9880;SDS011;4979;51.014;6.678;2024-02-28T12:46:15;25.33;;;14.18;;
9880;SDS011;4979;51.014;6.678;2024-02-28T12:48:40;25.00;;;15.00;;
9880;SDS011;4979;51.014;6.678;2024-02-28T12:51:06;24.83;;;15.23;;
9880;SDS011;4979;51.014;6.678;2024-02-28T12:53:35;22.08;;;13.55;;
9880;SDS011;4979;51.014;6.678;2024-02-28T12:56:01;24.13;;;13.88;;
9880;SDS011;4979;51.014;6.678;2024-02-28T12:58:27;23.60;;;13.82;;
9880;SDS011;4979;51.014;6.678;2024-02-28T13:00:52;21.52;;;12.60;;
9880;SDS011;4979;51.014;6.678;2024-02-28T13:03:18;22.92;;;12.70;;
9880;SDS011;4979;51.014;6.678;2024-02-28T13:05:44;22.27;;;13.18;;
9880;SDS011;4979;51.014;6.678;2024-02-28T13:08:10;22.92;;;13.15;;
9880;SDS011;4979;51.014;6.678;2024-02-28T13:10:36;21.88;;;13.18;;
9880;SDS011;4979;51.014;6.678;2024-02-28T13:13:06;24.33;;;13.00;;
9880;SDS011;4979;51.014;6.678;2024-02-28T13:15:32;22.20;;;13.05;;
9880;SDS011;4979;51.014;6.678;2024-02-28T13:17:58;23.80;;;12.88;;
9880;SDS011;4979;51.014;6.678;2024-02-28T13:20:23;23.35;;;13.20;;
9880;SDS011;4979;51.014;6.678;2024-02-28T13:22:50;19.65;;;12.50;;
9880;SDS011;4979;51.014;6.678;2024-02-28T13:25:16;20.17;;;12.43;;
9880;SDS011;4979;51.014;6.678;2024-02-28T13:27:44;17.58;;;10.82;;
9880;SDS011;4979;51.014;6.678;2024-02-28T13:30:10;16.67;;;10.43;;
9880;SDS011;4979;51.014;6.678;2024-02-28T13:32:36;18.50;;;10.05;;
9880;SDS011;4979;51.014;6.678;2024-02-28T13:35:02;17.70;;;11.00;;
9880;SDS011;4979;51.014;6.678;2024-02-28T13:37:28;16.27;;;10.70;;
9880;SDS011;4979;51.014;6.678;2024-02-28T13:39:53;21.27;;;10.38;;
9880;SDS011;4979;51.014;6.678;2024-02-28T13:42:19;19.00;;;12.35;;
9880;SDS011;4979;51.014;6.678;2024-02-28T13:44:45;21.33;;;13.27;;
9880;SDS011;4979;51.014;6.678;2024-02-28T13:47:11;15.82;;;9.95;;
9880;SDS011;4979;51.014;6.678;2024-02-28T13:49:38;15.75;;;9.85;;
9880;SDS011;4979;51.014;6.678;2024-02-28T13:52:04;16.95;;;9.13;;
9880;SDS011;4979;51.014;6.678;2024-02-28T13:54:30;16.95;;;9.38;;
9880;SDS011;4979;51.014;6.678;2024-02-28T13:56:56;15.38;;;9.02;;
9880;SDS011;4979;51.014;6.678;2024-02-28T13:59:22;16.70;;;8.98;;
9880;SDS011;4979;51.014;6.678;2024-02-28T14:01:48;14.80;;;9.35;;
9880;SDS011;4979;51.014;6.678;2024-02-28T14:04:14;17.08;;;9.23;;
9880;SDS011;4979;51.014;6.678;2024-02-28T14:06:40;20.85;;;8.70;;
9880;SDS011;4979;51.014;6.678;2024-02-28T14:09:05;13.68;;;8.18;;
9880;SDS011;4979;51.014;6.678;2024-02-28T14:11:31;17.50;;;10.05;;
9880;SDS011;4979;51.014;6.678;2024-02-28T14:13:57;14.80;;;10.10;;
9880;SDS011;4979;51.014;6.678;2024-02-28T14:16:23;14.00;;;7.82;;
9880;SDS011;4979;51.014;6.678;2024-02-28T14:18:49;17.30;;;8.90;;
9880;SDS011;4979;51.014;6.678;2024-02-28T14:21:14;15.13;;;9.20;;
9880;SDS011;4979;51.014;6.678;2024-02-28T14:23:40;12.30;;;8.27;;
9880;SDS011;4979;51.014;6.678;2024-02-28T14:26:06;14.77;;;8.95;;
9880;SDS011;4979;51.014;6.678;2024-02-28T14:28:32;17.40;;;11.88;;
9880;SDS011;4979;51.014;6.678;2024-02-28T14:30:57;19.77;;;10.15;;
9880;SDS011;4979;51.014;6.678;2024-02-28T14:33:23;17.30;;;9.43;;
9880;SDS011;4979;51.014;6.678;2024-02-28T14:35:48;17.25;;;10.18;;
9880;SDS011;4979;51.014;6.678;2024-02-28T14:38:14;19.00;;;9.32;;
9880;SDS011;4979;51.014;6.678;2024-02-28T14:40:40;15.45;;;9.73;;
9880;SDS011;4979;51.014;6.678;2024-02-28T14:43:07;15.57;;;9.07;;
9880;SDS011;4979;51.014;6.678;2024-02-28T14:45:33;18.05;;;10.30;;